createdAt,value
2019-01-23T00:00:04.805Z,58.50
2019-01-23T00:02:43.362Z,60.73
2019-01-23T00:05:13.708Z,64.10
2019-01-23T00:07:44.059Z,61.07
2019-01-23T00:10:15.611Z,58.23
2019-01-23T00:12:46.137Z,59.63
2019-01-23T00:15:16.874Z,65.45
2019-01-23T00:17:47.193Z,60.60
2019-01-23T00:20:17.731Z,60.67
2019-01-23T00:22:51.840Z,63.40
2019-01-23T00:25:22.178Z,58.10
2019-01-23T00:27:52.542Z,59.17
2019-01-23T00:30:25.492Z,54.67
2019-01-23T00:32:56.036Z,56.93
2019-01-23T00:35:26.931Z,55.48
2019-01-23T00:37:58.273Z,56.17
2019-01-23T00:40:30.511Z,53.26
2019-01-23T00:43:01.140Z,56.17
2019-01-23T00:45:34.070Z,57.45
2019-01-23T00:48:04.523Z,59.20
2019-01-23T00:50:37.365Z,55.67
2019-01-23T00:53:09.802Z,61.97
2019-01-23T00:55:43.096Z,64.00
2019-01-23T00:58:13.629Z,58.07
2019-01-23T01:00:44.200Z,50.23
2019-01-23T01:03:14.734Z,59.50
2019-01-23T01:05:46.423Z,54.53
2019-01-23T01:08:16.766Z,51.63
2019-01-23T01:10:48.037Z,58.48
2019-01-23T01:13:22.318Z,52.40
2019-01-23T01:15:50.749Z,53.63
2019-01-23T01:18:21.400Z,52.95
2019-01-23T01:20:52.058Z,54.27
2019-01-23T01:23:22.495Z,53.83
2019-01-23T01:25:53.004Z,53.93
2019-01-23T01:28:23.581Z,59.03
2019-01-23T01:30:54.984Z,54.77
2019-01-23T01:33:27.410Z,61.08
2019-01-23T01:35:57.864Z,57.27
2019-01-23T01:38:29.566Z,53.38
2019-01-23T01:41:05.012Z,53.73
2019-01-23T01:43:35.355Z,56.83
2019-01-23T01:46:08.721Z,57.53
2019-01-23T01:48:40.936Z,51.77
2019-01-23T01:51:11.346Z,58.10
2019-01-23T01:53:47.299Z,50.75
2019-01-23T01:56:14.224Z,58.03
2019-01-23T01:58:44.875Z,55.70
2019-01-23T02:01:16.383Z,58.20
2019-01-23T02:03:48.864Z,55.33
2019-01-23T02:06:19.173Z,58.93
2019-01-23T02:08:50.929Z,55.95
2019-01-23T02:11:21.274Z,54.37
2019-01-23T02:13:53.683Z,57.53
2019-01-23T02:16:24.096Z,60.17
2019-01-23T02:18:55.658Z,63.05
2019-01-23T02:21:27.313Z,56.43
2019-01-23T02:24:00.002Z,57.20
2019-01-23T02:26:30.316Z,52.70
2019-01-23T02:29:01.758Z,52.15
2019-01-23T02:31:32.367Z,54.60
2019-01-23T02:34:13.542Z,56.37
2019-01-23T02:36:44.112Z,55.63
2019-01-23T02:39:15.365Z,52.02
2019-01-23T02:41:45.998Z,55.70
2019-01-23T02:44:16.781Z,55.90
2019-01-23T02:46:47.293Z,55.83
2019-01-23T02:49:19.078Z,55.70
2019-01-23T02:51:50.830Z,57.73
2019-01-23T02:54:26.422Z,59.67
2019-01-23T02:56:57.052Z,53.73
2019-01-23T02:59:29.748Z,54.60
2019-01-23T03:02:00.401Z,59.33
2019-01-23T03:04:33.337Z,55.26
2019-01-23T03:07:05.183Z,51.53
2019-01-23T03:09:35.509Z,51.37
2019-01-23T03:12:08.213Z,55.17
2019-01-23T03:14:39.340Z,52.50
2019-01-23T03:17:09.695Z,50.20
2019-01-23T03:19:41.118Z,50.67
2019-01-23T03:22:11.531Z,49.77
2019-01-23T03:24:42.333Z,48.40
2019-01-23T03:27:13.121Z,51.73
2019-01-23T03:29:45.004Z,51.13
2019-01-23T03:32:15.477Z,44.23
2019-01-23T03:34:45.872Z,49.20
2019-01-23T03:37:16.807Z,46.80
2019-01-23T03:39:47.115Z,48.43
2019-01-23T03:42:17.722Z,42.97
2019-01-23T03:44:48.126Z,51.77
2019-01-23T03:47:20.579Z,44.38
2019-01-23T03:49:51.159Z,48.47
2019-01-23T03:52:23.352Z,40.28
2019-01-23T03:54:55.268Z,47.73
2019-01-23T03:57:26.162Z,46.50
2019-01-23T03:59:56.543Z,48.50
2019-01-23T04:02:27.398Z,48.78
2019-01-23T04:04:58.160Z,49.63
2019-01-23T04:07:30.294Z,45.50
2019-01-23T04:10:02.631Z,46.80
2019-01-23T04:12:34.372Z,47.43
2019-01-23T04:15:06.793Z,48.27
2019-01-23T04:17:39.846Z,49.50
2019-01-23T04:20:13.522Z,45.47
2019-01-23T04:22:44.733Z,46.68
2019-01-23T04:25:15.746Z,46.30
2019-01-23T04:27:48.143Z,46.67
2019-01-23T04:30:22.790Z,51.17
2019-01-23T04:32:55.446Z,51.15
2019-01-23T04:35:28.332Z,51.27
2019-01-23T04:37:58.845Z,50.67
2019-01-23T04:40:29.415Z,47.53
2019-01-23T04:43:00.239Z,47.50
2019-01-23T04:45:33.255Z,47.93
2019-01-23T04:48:04.267Z,47.17
2019-01-23T04:50:53.504Z,43.27
2019-01-23T04:53:37.891Z,48.30
2019-01-23T04:56:11.186Z,45.20
2019-01-23T04:58:41.414Z,49.17
2019-01-23T05:01:11.920Z,47.03
2019-01-23T05:03:43.231Z,54.13
2019-01-23T05:06:13.816Z,52.17
2019-01-23T05:08:52.059Z,51.80
2019-01-23T05:11:22.746Z,51.50
2019-01-23T05:13:53.194Z,49.37
2019-01-23T05:16:28.135Z,49.97
2019-01-23T05:18:58.861Z,50.40
2019-01-23T05:21:29.834Z,50.13
2019-01-23T05:24:00.861Z,48.80
2019-01-23T05:26:32.754Z,51.43
2019-01-23T05:29:04.672Z,46.77
2019-01-23T05:31:35.093Z,46.10
2019-01-23T05:34:06.878Z,50.95
2019-01-23T05:36:37.483Z,51.53
2019-01-23T05:39:09.554Z,51.97
2019-01-23T05:41:39.867Z,50.60
2019-01-23T05:44:10.825Z,49.60
2019-01-23T05:46:41.233Z,46.40
2019-01-23T05:49:11.869Z,50.37
2019-01-23T05:51:42.179Z,52.43
2019-01-23T05:54:14.413Z,53.53
2019-01-23T05:56:45.070Z,49.10
2019-01-23T05:59:15.500Z,50.25
2019-01-23T06:01:45.938Z,55.27
2019-01-23T06:04:18.066Z,48.87
2019-01-23T06:06:48.407Z,47.50
2019-01-23T06:09:22.783Z,49.65
2019-01-23T06:11:53.254Z,49.60
2019-01-23T06:14:25.225Z,48.57
2019-01-23T06:16:57.274Z,50.53
2019-01-23T06:19:28.347Z,49.73
2019-01-23T06:22:01.319Z,52.83
2019-01-23T06:24:32.697Z,50.80
2019-01-23T06:27:03.106Z,52.33
2019-01-23T06:29:33.512Z,55.13
2019-01-23T06:32:06.240Z,50.33
2019-01-23T06:34:37.792Z,53.93
2019-01-23T06:37:08.566Z,49.60
2019-01-23T06:39:44.610Z,48.90
2019-01-23T06:42:15.328Z,44.30
2019-01-23T06:44:47.016Z,53.95
2019-01-23T06:47:17.643Z,48.08
2019-01-23T06:49:48.186Z,52.07
2019-01-23T06:52:20.234Z,49.20
2019-01-23T06:54:50.785Z,49.40
2019-01-23T06:57:21.533Z,47.50
2019-01-23T06:59:51.828Z,46.57
2019-01-23T07:02:22.716Z,45.17
2019-01-23T07:04:53.260Z,49.27
2019-01-23T07:07:23.872Z,49.80
2019-01-23T07:09:54.541Z,50.07
2019-01-23T07:12:25.141Z,52.43
2019-01-23T07:14:55.561Z,52.07
2019-01-23T07:17:25.938Z,47.50
2019-01-23T07:19:58.898Z,49.77
2019-01-23T07:22:30.924Z,53.92
2019-01-23T07:25:01.393Z,47.80
2019-01-23T07:27:31.881Z,50.30
2019-01-23T07:30:02.519Z,51.57
2019-01-23T07:32:34.170Z,50.90
2019-01-23T07:35:05.175Z,52.10
2019-01-23T07:37:38.237Z,51.66
2019-01-23T07:40:12.462Z,51.20
2019-01-23T07:42:44.424Z,46.92
2019-01-23T07:45:17.253Z,48.67
2019-01-23T07:47:50.711Z,51.70
2019-01-23T07:50:21.034Z,47.30
2019-01-23T07:52:53.408Z,48.23
2019-01-23T07:55:23.896Z,51.30
2019-01-23T07:57:56.157Z,52.47
2019-01-23T08:00:31.532Z,46.60
2019-01-23T08:03:01.119Z,49.70
2019-01-23T08:05:31.763Z,49.47
2019-01-23T08:08:02.482Z,48.92
2019-01-23T08:10:33.133Z,52.83
2019-01-23T08:13:03.528Z,56.70
2019-01-23T08:15:35.593Z,53.23
2019-01-23T08:18:07.184Z,49.67
2019-01-23T08:20:37.708Z,52.60
2019-01-23T08:23:08.076Z,55.10
2019-01-23T08:25:42.829Z,52.10
2019-01-23T08:28:13.257Z,50.90
2019-01-23T08:30:43.992Z,55.87
2019-01-23T08:33:14.318Z,53.50
2019-01-23T08:35:44.974Z,53.50
2019-01-23T08:38:15.704Z,46.93
2019-01-23T08:40:46.553Z,55.07
2019-01-23T08:43:18.840Z,52.30
2019-01-23T08:45:49.490Z,54.10
2019-01-23T08:48:21.104Z,49.10
2019-01-23T08:50:52.606Z,53.43
2019-01-23T08:53:23.099Z,54.83
2019-01-23T08:55:56.083Z,48.87
2019-01-23T08:58:25.671Z,50.17
2019-01-23T09:00:56.020Z,49.73
2019-01-23T09:03:28.706Z,55.03
2019-01-23T09:06:00.593Z,57.85
2019-01-23T09:08:37.452Z,53.68
2019-01-23T09:11:05.650Z,52.03
2019-01-23T09:13:36.032Z,55.07
2019-01-23T09:16:08.906Z,51.56
2019-01-23T09:18:41.335Z,50.70
2019-01-23T09:21:11.698Z,44.65
2019-01-23T09:23:42.027Z,51.47
2019-01-23T09:26:14.508Z,50.77
2019-01-23T09:28:44.925Z,55.38
2019-01-23T09:31:43.924Z,57.47
2019-01-23T09:34:39.376Z,50.74
2019-01-23T09:37:31.265Z,52.73
2019-01-23T09:40:32.810Z,50.05
2019-01-23T09:43:19.497Z,49.50
2019-01-23T09:46:25.753Z,51.23
2019-01-23T09:49:45.523Z,48.70
2019-01-23T09:52:54.216Z,54.27
2019-01-23T09:55:27.047Z,56.00
2019-01-23T09:58:00.404Z,52.53
2019-01-23T10:00:31.690Z,53.90
2019-01-23T10:03:04.127Z,56.65
2019-01-23T10:05:35.069Z,51.10
2019-01-23T10:08:07.685Z,57.03
2019-01-23T10:10:38.007Z,59.33
2019-01-23T10:13:10.182Z,53.70
2019-01-23T10:15:50.173Z,52.60
2019-01-23T10:18:20.632Z,51.83
2019-01-23T10:20:51.571Z,48.43
2019-01-23T10:23:22.024Z,49.93
2019-01-23T10:25:52.647Z,51.03
2019-01-23T10:28:23.197Z,49.67
2019-01-23T10:30:53.468Z,52.53
2019-01-23T10:33:24.447Z,52.73
2019-01-23T10:35:55.054Z,47.33
2019-01-23T10:38:25.707Z,51.13
2019-01-23T10:40:56.202Z,54.93
2019-01-23T10:43:26.960Z,50.17
2019-01-23T10:45:57.509Z,52.60
2019-01-23T10:48:28.158Z,44.13
2019-01-23T10:50:58.619Z,52.13
2019-01-23T10:53:30.475Z,49.92
2019-01-23T10:56:01.127Z,55.90
2019-01-23T10:58:32.831Z,52.77
2019-01-23T11:01:03.489Z,53.30
2019-01-23T11:03:38.406Z,52.62
2019-01-23T11:06:08.919Z,51.33
2019-01-23T11:08:42.672Z,56.68
2019-01-23T11:11:13.270Z,58.03
2019-01-23T11:13:43.630Z,51.48
2019-01-23T11:16:14.034Z,52.00
2019-01-23T11:18:46.283Z,52.53
2019-01-23T11:21:20.899Z,50.57
2019-01-23T11:23:51.249Z,53.00
2019-01-23T11:26:21.614Z,52.67
2019-01-23T11:28:54.626Z,48.13
2019-01-23T11:31:25.235Z,47.97
2019-01-23T11:33:55.964Z,54.53
2019-01-23T11:36:26.591Z,53.27
2019-01-23T11:38:58.770Z,50.70
2019-01-23T11:41:29.530Z,53.45
2019-01-23T11:44:01.419Z,51.23
2019-01-23T11:46:31.738Z,54.60
2019-01-23T11:49:02.040Z,51.07
2019-01-23T11:51:32.570Z,55.83
2019-01-23T11:54:06.418Z,55.97
2019-01-23T11:56:37.150Z,58.95
2019-01-23T11:59:09.930Z,56.40
2019-01-23T12:01:42.374Z,55.23
2019-01-23T12:04:14.402Z,57.43
2019-01-23T12:06:44.810Z,52.07
2019-01-23T12:09:15.337Z,65.37
2019-01-23T12:11:45.939Z,56.50
2019-01-23T12:14:19.622Z,61.67
2019-01-23T12:16:50.327Z,54.33
2019-01-23T12:19:20.934Z,61.27
2019-01-23T12:21:53.720Z,57.23
2019-01-23T12:24:24.783Z,58.80
2019-01-23T12:26:55.443Z,55.55
2019-01-23T12:29:28.750Z,55.93
2019-01-23T12:31:59.268Z,58.63
2019-01-23T12:34:29.616Z,59.33
2019-01-23T12:37:00.287Z,59.90
2019-01-23T12:39:36.947Z,59.00
2019-01-23T12:42:09.363Z,61.28
2019-01-23T12:44:48.473Z,56.97
2019-01-23T12:47:18.843Z,60.20
2019-01-23T12:49:49.192Z,56.73
2019-01-23T12:52:19.802Z,59.50
2019-01-23T12:54:51.866Z,57.47
2019-01-23T12:57:25.055Z,54.30
2019-01-23T12:59:55.501Z,60.60
2019-01-23T13:02:26.155Z,53.15
2019-01-23T13:04:56.622Z,52.27
2019-01-23T13:07:27.459Z,56.65
2019-01-23T13:09:57.775Z,56.13
2019-01-23T13:12:29.606Z,57.45
2019-01-23T13:15:00.314Z,57.53
2019-01-23T13:17:34.359Z,53.52
2019-01-23T13:20:06.240Z,56.60
2019-01-23T13:22:37.742Z,51.68
2019-01-23T13:25:17.623Z,60.57
2019-01-23T13:27:48.586Z,57.13
2019-01-23T13:30:20.958Z,55.70
2019-01-23T13:32:52.031Z,49.43
2019-01-23T13:35:24.914Z,49.10
2019-01-23T13:37:55.735Z,51.80
2019-01-23T13:40:34.383Z,46.47
2019-01-23T13:43:07.110Z,44.95
2019-01-23T13:45:38.009Z,48.57
2019-01-23T13:48:10.340Z,42.27
2019-01-23T13:50:45.817Z,41.10
2019-01-23T13:53:18.365Z,39.30
2019-01-23T13:55:48.694Z,42.30
2019-01-23T13:58:26.228Z,37.73
2019-01-23T14:00:56.598Z,35.77
2019-01-23T14:03:26.991Z,40.13
2019-01-23T14:05:57.991Z,43.97
2019-01-23T14:08:28.575Z,43.40
2019-01-23T14:11:02.797Z,38.00
2019-01-23T14:13:33.140Z,39.43
2019-01-23T14:16:06.317Z,42.00
2019-01-23T14:18:38.533Z,44.27
2019-01-23T14:21:08.859Z,41.67
2019-01-23T14:23:39.182Z,38.05
2019-01-23T14:26:25.234Z,39.27
2019-01-23T14:28:56.985Z,39.35
2019-01-23T14:31:30.747Z,43.77
2019-01-23T14:34:01.193Z,38.73
2019-01-23T14:36:34.194Z,42.60
2019-01-23T14:39:09.834Z,34.60
2019-01-23T14:41:42.580Z,35.28
2019-01-23T14:44:13.072Z,34.03
2019-01-23T14:46:45.054Z,39.30
2019-01-23T14:49:36.148Z,38.53
2019-01-23T14:51:53.879Z,37.28
2019-01-23T14:54:36.213Z,42.47
2019-01-23T14:56:59.199Z,42.85
2019-01-23T14:59:29.579Z,46.67
2019-01-23T15:02:02.043Z,45.00
2019-01-23T15:04:32.666Z,55.23
2019-01-23T15:07:03.712Z,46.73
2019-01-23T15:09:34.328Z,49.50
2019-01-23T15:12:08.982Z,51.60
2019-01-23T15:14:39.926Z,43.63
2019-01-23T15:17:11.737Z,47.33
2019-01-23T15:19:42.235Z,57.70
2019-01-23T15:22:12.757Z,49.73
2019-01-23T15:24:43.271Z,50.67
2019-01-23T15:27:16.882Z,46.90
2019-01-23T15:29:47.591Z,53.00
2019-01-23T15:32:18.301Z,61.20
2019-01-23T15:34:48.780Z,53.53
2019-01-23T15:37:21.599Z,55.43
2019-01-23T15:39:51.964Z,56.05
2019-01-23T15:42:22.270Z,52.70
2019-01-23T15:44:52.612Z,60.23
2019-01-23T15:47:23.000Z,56.87
2019-01-23T15:49:53.511Z,53.80
2019-01-23T15:52:23.907Z,53.37
2019-01-23T15:54:54.497Z,53.50
2019-01-23T15:57:24.846Z,50.30
2019-01-23T15:59:55.613Z,53.70
2019-01-23T16:02:26.305Z,50.98
2019-01-23T16:04:57.990Z,59.13
2019-01-23T16:07:31.732Z,52.70
2019-01-23T16:10:02.559Z,59.93
2019-01-23T16:12:37.250Z,54.93
2019-01-23T16:15:09.102Z,55.27
2019-01-23T16:17:39.878Z,50.73
2019-01-23T16:20:12.090Z,52.25
2019-01-23T16:22:44.947Z,53.37
2019-01-23T16:25:16.734Z,48.05
2019-01-23T16:27:47.240Z,58.07
2019-01-23T16:30:30.902Z,55.30
2019-01-23T16:33:01.441Z,53.30
2019-01-23T16:35:38.775Z,52.80
2019-01-23T16:38:10.066Z,53.50
2019-01-23T16:40:40.932Z,51.42
2019-01-23T16:43:17.427Z,52.80
2019-01-23T16:45:48.263Z,53.77
2019-01-23T16:48:20.167Z,55.58
2019-01-23T16:50:53.555Z,58.00
2019-01-23T16:53:24.352Z,54.17
2019-01-23T16:55:55.222Z,56.30
2019-01-23T16:58:25.800Z,59.73
2019-01-23T17:00:56.584Z,58.50
2019-01-23T17:03:27.126Z,57.10
2019-01-23T17:05:59.313Z,62.15
2019-01-23T17:08:30.016Z,60.43
2019-01-23T17:11:01.930Z,57.80
2019-01-23T17:13:32.250Z,58.37
2019-01-23T17:16:02.970Z,64.47
2019-01-23T17:18:33.416Z,58.13
2019-01-23T17:21:06.619Z,57.25
2019-01-23T17:23:38.078Z,58.60
2019-01-23T17:26:09.242Z,60.33
2019-01-23T17:28:43.053Z,58.57
2019-01-23T17:31:13.509Z,58.53
2019-01-23T17:33:44.352Z,53.17
2019-01-23T17:36:16.092Z,60.43
2019-01-23T17:38:46.985Z,60.07
2019-01-23T17:41:20.198Z,60.76
2019-01-23T17:43:50.818Z,59.30
2019-01-23T17:46:21.391Z,62.17
2019-01-23T17:48:53.689Z,58.57
2019-01-23T17:51:24.247Z,60.13
2019-01-23T17:53:56.344Z,64.70
2019-01-23T17:56:27.119Z,69.80
2019-01-23T17:59:01.127Z,60.40
2019-01-23T18:01:31.940Z,66.10
2019-01-23T18:04:02.313Z,69.37
2019-01-23T18:06:35.373Z,62.43
2019-01-23T18:09:09.807Z,64.60
2019-01-23T18:11:40.477Z,63.93
2019-01-23T18:14:10.876Z,68.83
2019-01-23T18:16:43.852Z,64.47
2019-01-23T18:19:14.711Z,68.73
2019-01-23T18:21:46.953Z,61.30
2019-01-23T18:24:20.890Z,60.12
2019-01-23T18:26:51.504Z,54.97
2019-01-23T18:29:22.057Z,65.10
2019-01-23T18:32:02.861Z,61.73
2019-01-23T18:35:06.453Z,61.28
2019-01-23T18:37:54.775Z,61.40
2019-01-23T18:41:12.622Z,62.40
2019-01-23T18:44:09.592Z,58.42
2019-01-23T18:47:21.638Z,60.50
2019-01-23T18:50:31.866Z,59.90
2019-01-23T18:53:02.476Z,59.20
2019-01-23T18:55:34.760Z,64.93
2019-01-23T18:58:06.605Z,64.00
2019-01-23T19:00:37.442Z,62.23
2019-01-23T19:03:08.484Z,64.83
2019-01-23T19:05:42.031Z,59.37
2019-01-23T19:08:15.074Z,73.22
2019-01-23T19:10:45.501Z,61.47
2019-01-23T19:13:17.625Z,58.25
2019-01-23T19:15:47.998Z,57.70
2019-01-23T19:18:18.621Z,62.90
2019-01-23T19:20:50.639Z,64.27
2019-01-23T19:23:21.080Z,62.70
2019-01-23T19:25:51.525Z,67.00
2019-01-23T19:28:22.601Z,65.37
2019-01-23T19:30:55.255Z,57.30
2019-01-23T19:33:25.868Z,60.20
2019-01-23T19:35:56.773Z,58.73
2019-01-23T19:38:28.173Z,60.78
2019-01-23T19:40:58.748Z,67.87
2019-01-23T19:43:31.260Z,66.47
2019-01-23T19:46:05.604Z,58.87
2019-01-23T19:48:36.465Z,65.07
2019-01-23T19:51:09.679Z,69.00
2019-01-23T19:53:40.632Z,63.37
2019-01-23T19:56:11.305Z,63.67
2019-01-23T19:58:42.952Z,64.16
2019-01-23T20:01:14.695Z,67.53
2019-01-23T20:03:45.388Z,68.37
2019-01-23T20:06:16.045Z,60.83
2019-01-23T20:08:50.825Z,69.58
2019-01-23T20:11:21.303Z,59.23
2019-01-23T20:13:53.341Z,64.03
2019-01-23T20:16:25.079Z,67.67
2019-01-23T20:18:57.734Z,67.10
2019-01-23T20:21:28.133Z,67.50
2019-01-23T20:24:03.890Z,62.48
2019-01-23T20:26:33.179Z,68.07
2019-01-23T20:29:03.916Z,63.15
2019-01-23T20:31:37.852Z,67.87
2019-01-23T20:34:09.990Z,61.83
2019-01-23T20:36:40.659Z,62.00
2019-01-23T20:39:12.445Z,64.75
2019-01-23T20:41:51.562Z,62.30
2019-01-23T20:44:19.154Z,59.90
2019-01-23T20:46:49.610Z,58.83
2019-01-23T20:49:30.185Z,65.47
2019-01-23T20:52:00.719Z,63.83
2019-01-23T20:54:31.067Z,63.63
2019-01-23T20:57:03.563Z,60.30
2019-01-23T20:59:34.560Z,59.42
2019-01-23T21:02:05.710Z,65.90
2019-01-23T21:04:38.123Z,62.65
2019-01-23T21:07:08.512Z,66.10
2019-01-23T21:09:41.840Z,62.08
2019-01-23T21:12:18.495Z,65.37
2019-01-23T21:14:44.877Z,66.60
2019-01-23T21:17:15.707Z,68.53
2019-01-23T21:19:49.274Z,60.20
2019-01-23T21:22:21.451Z,61.77
2019-01-23T21:24:51.833Z,58.57
2019-01-23T21:27:23.612Z,61.25
2019-01-23T21:29:57.145Z,63.80
2019-01-23T21:32:28.625Z,56.85
2019-01-23T21:34:59.039Z,60.70
2019-01-23T21:37:29.446Z,56.60
2019-01-23T21:39:59.943Z,59.43
2019-01-23T21:42:33.448Z,63.90
2019-01-23T21:45:03.998Z,63.57
2019-01-23T21:47:34.704Z,67.30
2019-01-23T21:50:07.770Z,69.40
2019-01-23T21:52:38.727Z,53.75
2019-01-23T21:55:11.321Z,60.87
2019-01-23T21:57:43.257Z,55.10
2019-01-23T22:00:27.516Z,59.43
2019-01-23T22:03:01.813Z,54.13
2019-01-23T22:05:35.946Z,56.37
2019-01-23T22:08:10.382Z,58.20
2019-01-23T22:10:40.944Z,54.07
2019-01-23T22:13:11.676Z,57.40
2019-01-23T22:15:43.605Z,57.30
2019-01-23T22:18:15.717Z,65.30
2019-01-23T22:20:46.570Z,61.15
2019-01-23T22:23:17.015Z,62.10
2019-01-23T22:25:48.719Z,63.23
2019-01-23T22:28:23.460Z,63.20
2019-01-23T22:30:54.622Z,66.42
2019-01-23T22:33:24.998Z,62.30
2019-01-23T22:35:58.556Z,58.45
2019-01-23T22:38:28.856Z,68.83
2019-01-23T22:40:59.541Z,62.70
2019-01-23T22:43:32.666Z,64.35
2019-01-23T22:46:03.194Z,65.07
2019-01-23T22:48:33.607Z,64.47
2019-01-23T22:51:04.047Z,59.97
2019-01-23T22:53:34.658Z,61.50
2019-01-23T22:56:05.619Z,65.13
2019-01-23T22:58:42.916Z,62.80
2019-01-23T23:01:26.361Z,59.93
2019-01-23T23:04:03.123Z,58.77
2019-01-23T23:06:29.858Z,58.40
2019-01-23T23:09:01.822Z,68.50
2019-01-23T23:11:35.211Z,62.54
2019-01-23T23:14:06.834Z,64.50
2019-01-23T23:16:40.726Z,67.40
2019-01-23T23:19:11.385Z,58.33
2019-01-23T23:21:43.198Z,58.52
2019-01-23T23:24:13.531Z,66.73
2019-01-23T23:26:43.873Z,67.07
2019-01-23T23:29:14.467Z,65.30
2019-01-23T23:31:46.103Z,61.83
2019-01-23T23:34:16.791Z,55.43
2019-01-23T23:36:47.642Z,56.23
2019-01-23T23:39:18.278Z,65.20
2019-01-23T23:41:48.635Z,60.53
2019-01-23T23:44:19.315Z,60.27
2019-01-23T23:46:49.693Z,68.37
2019-01-23T23:49:20.354Z,53.47
2019-01-23T23:51:50.808Z,64.50
2019-01-23T23:54:21.166Z,66.97
2019-01-23T23:56:51.521Z,65.30
2019-01-23T23:59:22.123Z,65.77
